createdAt,value
2018-03-25T00:02:18.089Z,100243.92
2018-03-25T00:04:45.664Z,100248.05
2018-03-25T00:07:13.245Z,100245.89
2018-03-25T00:09:40.925Z,100251.17
2018-03-25T00:12:08.811Z,100257.20
2018-03-25T00:14:36.381Z,100252.12
2018-03-25T00:17:04.223Z,100256.48
2018-03-25T00:19:31.803Z,100248.07
2018-03-25T00:21:59.376Z,100253.37
2018-03-25T00:24:27.050Z,100252.02
2018-03-25T00:26:54.610Z,100253.90
2018-03-25T00:29:22.248Z,100256.34
2018-03-25T00:31:49.903Z,100259.64
2018-03-25T00:34:18.381Z,100256.89
2018-03-25T00:36:45.962Z,100254.64
2018-03-25T00:39:13.536Z,100255.62
2018-03-25T00:41:41.371Z,100245.96
2018-03-25T00:44:08.937Z,100253.32
2018-03-25T00:46:36.796Z,100254.25
2018-03-25T00:49:04.365Z,100254.71
2018-03-25T00:51:31.919Z,100253.18
2018-03-25T00:53:59.751Z,100251.17
2018-03-25T00:56:27.346Z,100249.34
2018-03-25T00:58:54.971Z,100250.11
2018-03-25T01:01:22.882Z,100248.09
2018-03-25T01:03:50.637Z,100256.31
2018-03-25T01:06:18.404Z,100253.72
2018-03-25T01:08:46.002Z,100255.94
2018-03-25T01:11:13.574Z,100246.22
2018-03-25T01:13:41.139Z,100254.66
2018-03-25T01:16:11.472Z,100246.44
2018-03-25T01:18:39.046Z,100260.71
2018-03-25T01:21:06.666Z,100254.56
2018-03-25T01:23:34.548Z,100254.54
2018-03-25T01:26:02.134Z,100264.41
2018-03-25T01:28:29.693Z,100253.02
2018-03-25T01:30:57.760Z,100253.88
2018-03-25T01:33:26.028Z,100245.93
2018-03-25T01:38:28.210Z,100248.56
2018-03-25T01:40:55.765Z,100244.51
2018-03-25T01:43:23.603Z,100246.73
2018-03-25T01:45:51.231Z,100248.29
2018-03-25T01:48:18.735Z,100246.55
2018-03-25T01:50:46.290Z,100243.44
2018-03-25T01:53:14.614Z,100241.63
2018-03-25T01:55:42.184Z,100240.55
2018-03-25T01:58:09.833Z,100241.38
2018-03-25T02:00:40.853Z,100237.77
2018-03-25T02:03:08.734Z,100235.09
2018-03-25T02:05:37.624Z,100237.25
2018-03-25T02:08:05.445Z,100240.48
2018-03-25T02:10:33.626Z,100237.56
2018-03-25T02:13:02.060Z,100230.80
2018-03-25T02:15:29.719Z,100233.84
2018-03-25T02:17:57.534Z,100228.09
2018-03-25T02:20:25.326Z,100234.33
2018-03-25T02:22:52.862Z,100235.41
2018-03-25T02:25:20.641Z,100240.03
2018-03-25T02:27:49.080Z,100233.71
2018-03-25T02:30:18.545Z,100239.89
2018-03-25T02:32:46.095Z,100238.50
2018-03-25T02:35:13.687Z,100236.83
2018-03-25T02:37:41.252Z,100238.39
2018-03-25T02:40:09.486Z,100238.95
2018-03-25T02:42:37.048Z,100236.45
2018-03-25T02:45:04.878Z,100240.47
2018-03-25T02:47:32.857Z,100242.77
2018-03-25T02:50:00.405Z,100240.47
2018-03-25T02:52:28.109Z,100244.39
2018-03-25T02:54:55.621Z,100246.61
2018-03-25T02:57:23.159Z,100249.94
2018-03-25T02:59:52.956Z,100246.20
2018-03-25T03:02:21.618Z,100253.63
2018-03-25T03:04:49.114Z,100248.16
2018-03-25T03:07:18.352Z,100248.28
2018-03-25T03:09:45.854Z,100255.98
2018-03-25T03:12:13.414Z,100256.28
2018-03-25T03:14:40.965Z,100255.38
2018-03-25T03:17:08.484Z,100264.29
2018-03-25T03:19:36.427Z,100257.34
2018-03-25T03:22:03.949Z,100261.59
2018-03-25T03:24:32.129Z,100261.23
2018-03-25T03:26:59.658Z,100268.38
2018-03-25T03:29:27.244Z,100263.73
2018-03-25T03:31:54.775Z,100266.37
2018-03-25T03:34:25.675Z,100266.92
2018-03-25T03:36:53.508Z,100269.38
2018-03-25T03:39:21.032Z,100270.52
2018-03-25T03:41:48.651Z,100269.86
2018-03-25T03:44:16.819Z,100270.94
2018-03-25T03:46:44.357Z,100273.16
2018-03-25T03:49:11.867Z,100274.16
2018-03-25T03:51:39.794Z,100277.77
2018-03-25T03:54:08.992Z,100277.48
2018-03-25T03:56:36.505Z,100279.36
2018-03-25T03:59:05.383Z,100283.87
2018-03-25T04:01:32.885Z,100280.15
2018-03-25T04:04:00.663Z,100284.30
2018-03-25T04:06:28.210Z,100281.88
2018-03-25T04:08:55.724Z,100288.61
2018-03-25T04:11:23.230Z,100290.89
2018-03-25T04:13:51.931Z,100288.19
2018-03-25T04:16:19.449Z,100289.84
2018-03-25T04:18:46.963Z,100288.34
2018-03-25T04:21:14.523Z,100281.34
2018-03-25T04:23:42.038Z,100280.20
2018-03-25T04:26:09.545Z,100281.54
2018-03-25T04:28:37.075Z,100282.71
2018-03-25T04:31:04.586Z,100287.72
2018-03-25T04:33:32.111Z,100286.12
2018-03-25T04:36:00.735Z,100286.68
2018-03-25T04:38:28.231Z,100288.83
2018-03-25T04:40:55.747Z,100281.91
2018-03-25T04:43:24.229Z,100286.83
2018-03-25T04:45:51.731Z,100281.01
2018-03-25T04:48:19.254Z,100289.75
2018-03-25T04:50:46.908Z,100279.00
2018-03-25T04:53:14.851Z,100289.11
2018-03-25T04:55:44.270Z,100282.55
2018-03-25T04:58:11.807Z,100282.06
2018-03-25T05:00:39.338Z,100292.33
2018-03-25T05:03:06.855Z,100288.92
2018-03-25T05:05:34.378Z,100293.91
2018-03-25T05:08:01.873Z,100301.18
2018-03-25T05:10:29.409Z,100296.67
2018-03-25T05:12:57.279Z,100298.19
2018-03-25T05:15:24.791Z,100297.94
2018-03-25T05:17:52.296Z,100288.77
2018-03-25T05:20:20.862Z,100297.93
2018-03-25T05:22:48.353Z,100292.73
2018-03-25T05:25:15.880Z,100295.03
2018-03-25T05:27:43.731Z,100303.14
2018-03-25T05:30:11.257Z,100298.48
2018-03-25T05:32:38.783Z,100293.75
2018-03-25T05:35:07.565Z,100299.38
2018-03-25T05:37:35.100Z,100299.98
2018-03-25T05:40:02.621Z,100293.70
2018-03-25T05:42:30.181Z,100307.08
2018-03-25T05:44:58.489Z,100305.56
2018-03-25T05:47:26.004Z,100313.59
2018-03-25T05:49:54.190Z,100307.20
2018-03-25T05:52:21.719Z,100313.02
2018-03-25T05:54:49.243Z,100309.28
2018-03-25T05:57:16.776Z,100313.94
2018-03-25T05:59:44.289Z,100313.84
2018-03-25T06:02:11.813Z,100311.19
2018-03-25T06:04:39.378Z,100308.81
2018-03-25T06:07:06.898Z,100310.74
2018-03-25T06:09:34.420Z,100315.03
2018-03-25T06:12:01.957Z,100311.02
2018-03-25T06:14:29.471Z,100307.95
2018-03-25T06:16:57.415Z,100309.41
2018-03-25T06:19:24.966Z,100316.64
2018-03-25T06:21:52.496Z,100309.05
2018-03-25T06:24:20.060Z,100318.33
2018-03-25T06:26:47.649Z,100313.91
2018-03-25T06:29:15.223Z,100318.80
2018-03-25T06:31:42.694Z,100321.11
2018-03-25T06:34:10.582Z,100321.98
2018-03-25T06:36:39.089Z,100323.01
2018-03-25T06:39:06.700Z,100326.02
2018-03-25T06:41:34.237Z,100328.55
2018-03-25T06:44:01.792Z,100318.56
2018-03-25T06:46:29.302Z,100323.22
2018-03-25T06:48:56.861Z,100318.56
2018-03-25T06:51:24.376Z,100327.20
2018-03-25T06:53:51.902Z,100332.34
2018-03-25T06:56:19.469Z,100335.32
2018-03-25T06:58:46.974Z,100333.33
2018-03-25T07:01:14.494Z,100339.52
2018-03-25T07:03:42.048Z,100343.72
2018-03-25T07:06:10.187Z,100341.16
2018-03-25T07:08:37.847Z,100340.62
2018-03-25T07:11:06.249Z,100343.19
2018-03-25T07:13:36.402Z,100343.25
2018-03-25T07:16:04.076Z,100344.14
2018-03-25T07:18:31.761Z,100339.42
2018-03-25T07:20:59.378Z,100339.93
2018-03-25T07:23:26.919Z,100335.72
2018-03-25T07:25:54.452Z,100344.25
2018-03-25T07:28:22.536Z,100334.24
2018-03-25T07:30:51.910Z,100338.27
2018-03-25T07:33:19.459Z,100340.39
2018-03-25T07:35:46.982Z,100345.36
2018-03-25T07:38:15.413Z,100348.47
2018-03-25T07:40:45.542Z,100349.28
2018-03-25T07:43:13.145Z,100353.34
2018-03-25T07:45:40.768Z,100356.44
2018-03-25T07:48:08.304Z,100357.26
2018-03-25T07:50:35.967Z,100362.89
2018-03-25T07:53:03.492Z,100363.22
2018-03-25T07:55:31.202Z,100362.75
2018-03-25T07:57:59.072Z,100364.73
2018-03-25T08:00:26.684Z,100363.03
2018-03-25T08:02:54.265Z,100365.97
2018-03-25T08:05:21.794Z,100375.27
2018-03-25T08:07:49.311Z,100369.94
2018-03-25T08:10:16.850Z,100367.45
2018-03-25T08:12:46.299Z,100374.78
2018-03-25T08:15:13.985Z,100376.31
2018-03-25T08:17:41.549Z,100379.33
2018-03-25T08:20:09.061Z,100386.53
2018-03-25T08:22:36.999Z,100381.52
2018-03-25T08:25:05.234Z,100393.62
2018-03-25T08:27:35.408Z,100387.83
2018-03-25T08:30:09.718Z,100390.13
2018-03-25T08:32:39.387Z,100387.11
2018-03-25T08:35:08.270Z,100385.06
2018-03-25T08:37:36.531Z,100386.77
2018-03-25T08:40:04.139Z,100391.80
2018-03-25T08:42:31.751Z,100383.30
2018-03-25T08:44:59.337Z,100388.89
2018-03-25T08:47:26.908Z,100392.95
2018-03-25T08:49:56.643Z,100392.87
2018-03-25T08:52:24.251Z,100391.79
2018-03-25T08:54:51.751Z,100387.49
2018-03-25T08:57:19.310Z,100383.53
2018-03-25T08:59:48.646Z,100382.77
2018-03-25T09:02:16.872Z,100380.98
2018-03-25T09:04:44.456Z,100380.80
2018-03-25T09:07:12.111Z,100380.63
2018-03-25T09:09:39.628Z,100383.28
2018-03-25T09:12:07.253Z,100381.27
2018-03-25T09:14:37.033Z,100381.00
2018-03-25T09:17:04.711Z,100377.95
2018-03-25T09:19:32.276Z,100380.70
2018-03-25T09:22:00.154Z,100377.81
2018-03-25T09:24:27.684Z,100383.99
2018-03-25T09:26:55.473Z,100379.47
2018-03-25T09:29:23.604Z,100382.35
2018-03-25T09:31:51.237Z,100393.30
2018-03-25T09:34:23.028Z,100382.73
2018-03-25T09:36:50.580Z,100387.31
2018-03-25T09:39:18.156Z,100376.03
2018-03-25T09:41:46.058Z,100379.17
2018-03-25T09:44:13.835Z,100371.23
2018-03-25T09:46:46.570Z,100382.25
2018-03-25T09:49:14.097Z,100381.95
2018-03-25T09:51:43.433Z,100378.73
2018-03-25T09:54:11.099Z,100380.56
2018-03-25T09:56:38.694Z,100379.89
2018-03-25T09:59:06.549Z,100387.76
2018-03-25T10:01:35.103Z,100392.31
2018-03-25T10:04:02.651Z,100384.78
2018-03-25T10:06:30.182Z,100390.05
2018-03-25T10:08:57.714Z,100393.37
2018-03-25T10:11:25.273Z,100396.02
2018-03-25T10:13:52.803Z,100390.08
2018-03-25T10:16:20.395Z,100393.20
2018-03-25T10:18:47.938Z,100390.55
2018-03-25T10:21:15.715Z,100390.86
2018-03-25T10:23:43.289Z,100390.95
2018-03-25T10:26:10.916Z,100390.39
2018-03-25T10:31:15.342Z,100382.73
2018-03-25T10:33:42.957Z,100390.91
2018-03-25T10:36:10.582Z,100385.91
2018-03-25T10:38:38.163Z,100389.51
2018-03-25T10:41:05.743Z,100391.31
2018-03-25T10:43:33.267Z,100395.78
2018-03-25T10:46:00.856Z,100394.09
2018-03-25T10:48:28.403Z,100397.34
2018-03-25T10:50:56.126Z,100393.95
2018-03-25T10:53:23.690Z,100384.77
2018-03-25T10:55:51.609Z,100386.31
2018-03-25T10:58:19.173Z,100382.92
2018-03-25T11:00:46.879Z,100385.42
2018-03-25T11:03:14.696Z,100385.23
2018-03-25T11:05:42.257Z,100387.12
2018-03-25T11:08:09.924Z,100380.72
2018-03-25T11:10:37.468Z,100381.17
2018-03-25T11:13:05.160Z,100384.42
2018-03-25T11:15:32.751Z,100378.33
2018-03-25T11:18:00.230Z,100380.44
2018-03-25T11:20:27.738Z,100381.17
2018-03-25T11:22:55.386Z,100377.63
2018-03-25T11:25:22.970Z,100378.45
2018-03-25T11:27:50.475Z,100381.42
2018-03-25T11:30:18.050Z,100386.91
2018-03-25T11:32:45.611Z,100392.50
2018-03-25T11:35:13.209Z,100389.08
2018-03-25T11:37:41.157Z,100390.55
2018-03-25T11:40:08.729Z,100386.88
2018-03-25T11:42:36.259Z,100388.47
2018-03-25T11:45:03.796Z,100390.03
2018-03-25T11:47:31.376Z,100383.41
2018-03-25T11:49:58.913Z,100386.65
2018-03-25T11:52:27.145Z,100384.39
2018-03-25T11:54:55.132Z,100381.22
2018-03-25T11:57:22.693Z,100375.24
2018-03-25T11:59:50.966Z,100375.08
2018-03-25T12:02:18.550Z,100384.14
2018-03-25T12:04:46.062Z,100384.25
2018-03-25T12:07:13.616Z,100391.69
2018-03-25T12:09:41.137Z,100390.05
2018-03-25T12:12:08.692Z,100388.80
2018-03-25T12:14:36.234Z,100383.05
2018-03-25T12:17:03.812Z,100376.84
2018-03-25T12:19:31.336Z,100375.06
2018-03-25T12:21:59.144Z,100375.64
2018-03-25T12:24:26.972Z,100372.77
2018-03-25T12:26:54.500Z,100372.87
2018-03-25T12:29:22.101Z,100379.81
2018-03-25T12:31:49.618Z,100371.59
2018-03-25T12:34:17.246Z,100359.73
2018-03-25T12:36:44.868Z,100358.08
2018-03-25T12:39:12.476Z,100353.53
2018-03-25T12:41:40.026Z,100352.13
2018-03-25T12:44:07.578Z,100345.77
2018-03-25T12:46:35.140Z,100349.11
2018-03-25T12:49:02.749Z,100349.78
2018-03-25T12:51:30.759Z,100350.35
2018-03-25T12:53:58.351Z,100344.84
2018-03-25T12:56:26.079Z,100339.89
2018-03-25T12:58:53.689Z,100347.76
2018-03-25T13:01:21.325Z,100353.13
2018-03-25T13:03:48.834Z,100349.69
2018-03-25T13:06:16.434Z,100345.31
2018-03-25T13:08:44.002Z,100347.05
2018-03-25T13:11:11.561Z,100347.27
2018-03-25T13:13:39.100Z,100348.02
2018-03-25T13:16:06.654Z,100351.72
2018-03-25T13:18:34.338Z,100357.16
2018-03-25T13:21:01.894Z,100359.28
2018-03-25T13:23:29.432Z,100354.20
2018-03-25T13:25:57.025Z,100355.87
2018-03-25T13:28:24.584Z,100353.98
2018-03-25T13:30:52.112Z,100347.91
2018-03-25T13:33:19.723Z,100344.84
2018-03-25T13:35:47.298Z,100346.66
2018-03-25T13:38:14.930Z,100354.66
2018-03-25T13:40:43.346Z,100348.30
2018-03-25T13:43:10.998Z,100348.98
2018-03-25T13:45:38.625Z,100351.84
2018-03-25T13:48:06.464Z,100346.55
2018-03-25T13:50:34.124Z,100349.19
2018-03-25T13:53:01.652Z,100349.81
2018-03-25T13:55:29.570Z,100342.33
2018-03-25T13:57:57.182Z,100340.23
2018-03-25T14:00:24.722Z,100339.76
2018-03-25T14:02:52.352Z,100338.91
2018-03-25T14:05:20.232Z,100337.70
2018-03-25T14:07:47.895Z,100330.53
2018-03-25T14:10:15.546Z,100336.35
2018-03-25T14:12:43.432Z,100338.80
2018-03-25T14:15:11.674Z,100339.25
2018-03-25T14:17:39.237Z,100333.95
2018-03-25T14:20:06.869Z,100328.40
2018-03-25T14:22:34.498Z,100330.27
2018-03-25T14:25:03.369Z,100332.45
2018-03-25T14:27:31.024Z,100320.84
2018-03-25T14:29:58.751Z,100320.44
2018-03-25T14:32:26.403Z,100313.69
2018-03-25T14:34:53.996Z,100319.62
2018-03-25T14:37:21.650Z,100316.91
2018-03-25T14:39:49.219Z,100313.41
2018-03-25T14:42:16.845Z,100319.55
2018-03-25T14:44:44.973Z,100313.12
2018-03-25T14:47:12.553Z,100313.27
2018-03-25T14:49:40.110Z,100312.25
2018-03-25T14:52:07.729Z,100313.80
2018-03-25T14:54:35.289Z,100313.73
2018-03-25T14:57:02.917Z,100313.14
2018-03-25T14:59:31.121Z,100319.56
2018-03-25T15:01:58.836Z,100316.85
2018-03-25T15:04:26.416Z,100316.83
2018-03-25T15:06:54.250Z,100315.91
2018-03-25T15:09:21.813Z,100316.11
2018-03-25T15:11:49.406Z,100315.17
2018-03-25T15:14:17.147Z,100323.52
2018-03-25T15:16:44.685Z,100320.16
2018-03-25T15:19:12.402Z,100323.97
2018-03-25T15:21:40.350Z,100328.59
2018-03-25T15:24:08.016Z,100325.52
2018-03-25T15:26:35.910Z,100330.63
2018-03-25T15:29:03.732Z,100328.85
2018-03-25T15:31:31.280Z,100326.60
2018-03-25T15:33:58.883Z,100333.62
2018-03-25T15:36:26.528Z,100330.53
2018-03-25T15:38:54.071Z,100337.08
2018-03-25T15:41:21.657Z,100333.05
2018-03-25T15:43:49.156Z,100340.41
2018-03-25T15:46:16.686Z,100339.61
2018-03-25T15:48:44.246Z,100332.97
2018-03-25T15:51:11.969Z,100335.45
2018-03-25T15:53:39.488Z,100332.57
2018-03-25T15:56:07.032Z,100332.48
2018-03-25T15:58:34.795Z,100328.97
2018-03-25T16:01:02.424Z,100328.97
2018-03-25T16:03:29.983Z,100326.78
2018-03-25T16:05:57.894Z,100331.00
2018-03-25T16:08:28.040Z,100323.27
2018-03-25T16:10:55.605Z,100323.64
2018-03-25T16:13:23.157Z,100321.74
2018-03-25T16:15:50.709Z,100330.27
2018-03-25T16:18:18.307Z,100334.38
2018-03-25T16:20:45.850Z,100335.19
2018-03-25T16:23:13.784Z,100333.75
2018-03-25T16:25:42.250Z,100326.47
2018-03-25T16:28:09.808Z,100321.95
2018-03-25T16:30:37.388Z,100331.16
2018-03-25T16:33:05.079Z,100338.71
2018-03-25T16:35:32.830Z,100330.95
2018-03-25T16:38:00.352Z,100333.27
2018-03-25T16:40:28.409Z,100332.96
2018-03-25T16:42:56.214Z,100335.48
2018-03-25T16:45:24.396Z,100337.78
2018-03-25T16:47:52.020Z,100344.14
2018-03-25T16:50:19.579Z,100348.73
2018-03-25T16:52:47.108Z,100354.94
2018-03-25T16:55:14.705Z,100351.11
2018-03-25T16:57:42.199Z,100359.91
2018-03-25T17:00:09.955Z,100356.03
2018-03-25T17:02:37.513Z,100366.52
2018-03-25T17:05:05.074Z,100367.66
2018-03-25T17:07:32.616Z,100368.41
2018-03-25T17:10:00.339Z,100368.22
2018-03-25T17:12:27.922Z,100368.55
2018-03-25T17:14:55.476Z,100371.28
2018-03-25T17:17:23.149Z,100366.85
2018-03-25T17:19:51.593Z,100373.06
2018-03-25T17:22:19.224Z,100374.12
2018-03-25T17:24:46.812Z,100375.87
2018-03-25T17:27:14.408Z,100376.56
2018-03-25T17:29:42.374Z,100385.13
2018-03-25T17:32:09.955Z,100381.17
2018-03-25T17:34:38.118Z,100388.12
2018-03-25T17:37:05.935Z,100391.25
2018-03-25T17:39:33.607Z,100386.74
2018-03-25T17:42:01.176Z,100390.66
2018-03-25T17:44:28.803Z,100388.88
2018-03-25T17:46:56.506Z,100384.62
2018-03-25T17:49:24.243Z,100387.66
2018-03-25T17:51:51.949Z,100392.48
2018-03-25T17:54:20.617Z,100387.33
2018-03-25T17:56:48.170Z,100393.13
2018-03-25T17:59:15.923Z,100394.38
2018-03-25T18:01:44.611Z,100397.81
2018-03-25T18:04:12.709Z,100400.48
2018-03-25T18:06:40.347Z,100415.56
2018-03-25T18:09:07.912Z,100403.03
2018-03-25T18:11:35.498Z,100414.25
2018-03-25T18:14:03.098Z,100417.70
2018-03-25T18:16:30.660Z,100422.89
2018-03-25T18:18:58.276Z,100427.53
2018-03-25T18:21:25.842Z,100426.70
2018-03-25T18:23:53.554Z,100429.64
2018-03-25T18:26:21.118Z,100428.48
2018-03-25T18:28:49.723Z,100432.67
2018-03-25T18:31:17.291Z,100433.17
2018-03-25T18:33:45.385Z,100438.67
2018-03-25T18:36:12.943Z,100441.34
2018-03-25T18:38:40.929Z,100441.50
2018-03-25T18:41:11.277Z,100439.66
2018-03-25T18:43:41.304Z,100436.34
2018-03-25T18:46:09.184Z,100441.27
2018-03-25T18:48:36.710Z,100441.36
2018-03-25T18:51:04.315Z,100441.95
2018-03-25T18:56:07.127Z,100442.05
2018-03-25T18:58:45.427Z,100441.45
2018-03-25T19:01:15.501Z,100440.72
2018-03-25T19:03:44.925Z,100435.77
2018-03-25T19:06:17.148Z,100441.44
2018-03-25T19:08:46.127Z,100443.98
2018-03-25T19:11:20.069Z,100448.41
2018-03-25T19:13:47.736Z,100446.95
2018-03-25T19:16:15.407Z,100448.83
2018-03-25T19:18:43.191Z,100448.55
2018-03-25T19:21:10.727Z,100450.22
2018-03-25T19:23:43.271Z,100451.46
2018-03-25T19:26:10.938Z,100452.56
2018-03-25T19:28:38.878Z,100452.20
2018-03-25T19:31:06.495Z,100454.37
2018-03-25T19:33:34.156Z,100455.88
2018-03-25T19:36:05.322Z,100457.81
2018-03-25T19:38:34.691Z,100457.48
2018-03-25T19:41:02.581Z,100448.47
2018-03-25T19:43:30.565Z,100454.72
2018-03-25T19:45:58.569Z,100460.74
2018-03-25T19:48:26.869Z,100464.00
2018-03-25T19:50:54.476Z,100461.13
2018-03-25T19:53:23.205Z,100458.08
2018-03-25T19:55:50.756Z,100462.58
2018-03-25T19:58:18.545Z,100461.90
2018-03-25T20:00:46.090Z,100468.48
2018-03-25T20:03:16.759Z,100466.14
2018-03-25T20:05:44.944Z,100466.25
2018-03-25T20:08:13.498Z,100464.80
2018-03-25T20:10:41.121Z,100465.58
2018-03-25T20:13:09.430Z,100461.75
2018-03-25T20:15:36.972Z,100461.24
2018-03-25T20:18:06.030Z,100462.66
2018-03-25T20:20:33.573Z,100459.59
2018-03-25T20:23:01.129Z,100464.89
2018-03-25T20:25:28.989Z,100463.29
2018-03-25T20:27:56.509Z,100467.28
2018-03-25T20:30:24.031Z,100469.89
2018-03-25T20:32:51.628Z,100467.28
2018-03-25T20:35:19.211Z,100469.83
2018-03-25T20:37:46.761Z,100470.16
2018-03-25T20:40:14.324Z,100468.55
2018-03-25T20:42:41.837Z,100471.73
2018-03-25T20:45:09.369Z,100472.23
2018-03-25T20:47:36.994Z,100468.82
2018-03-25T20:50:04.698Z,100471.91
2018-03-25T20:52:32.540Z,100470.56
2018-03-25T20:55:00.664Z,100475.45
2018-03-25T20:57:28.189Z,100475.87
2018-03-25T20:59:55.751Z,100474.13
2018-03-25T21:02:23.329Z,100478.86
2018-03-25T21:04:50.867Z,100483.30
2018-03-25T21:07:18.448Z,100478.49
2018-03-25T21:09:46.020Z,100482.06
2018-03-25T21:12:13.594Z,100481.48
2018-03-25T21:14:41.137Z,100477.98
2018-03-25T21:17:08.732Z,100475.09
2018-03-25T21:19:36.254Z,100483.76
2018-03-25T21:22:03.767Z,100478.28
2018-03-25T21:24:31.376Z,100483.48
2018-03-25T21:26:58.912Z,100485.47
2018-03-25T21:29:26.449Z,100486.69
2018-03-25T21:31:53.979Z,100487.06
2018-03-25T21:34:21.795Z,100487.92
2018-03-25T21:36:49.383Z,100485.91
2018-03-25T21:39:16.961Z,100489.31
2018-03-25T21:41:44.701Z,100487.48
2018-03-25T21:44:12.255Z,100487.41
2018-03-25T21:46:39.811Z,100482.57
2018-03-25T21:49:07.688Z,100484.04
2018-03-25T21:51:35.364Z,100490.66
2018-03-25T21:54:02.907Z,100485.15
2018-03-25T21:56:30.853Z,100489.06
2018-03-25T21:58:58.410Z,100493.97
2018-03-25T22:01:26.075Z,100490.23
2018-03-25T22:03:53.760Z,100492.41
2018-03-25T22:06:21.468Z,100492.61
2018-03-25T22:08:49.016Z,100491.97
2018-03-25T22:11:16.842Z,100495.42
2018-03-25T22:13:44.920Z,100498.26
2018-03-25T22:16:12.462Z,100493.78
2018-03-25T22:19:00.929Z,100499.11
2018-03-25T22:21:28.761Z,100497.86
2018-03-25T22:23:56.285Z,100501.12
2018-03-25T22:26:23.894Z,100500.05
2018-03-25T22:28:51.457Z,100501.96
2018-03-25T22:31:19.020Z,100494.53
2018-03-25T22:33:46.547Z,100496.69
2018-03-25T22:36:14.090Z,100498.15
2018-03-25T22:38:42.060Z,100500.56
2018-03-25T22:41:10.106Z,100498.86
2018-03-25T22:43:38.385Z,100501.28
2018-03-25T22:46:06.017Z,100500.95
2018-03-25T22:48:33.540Z,100503.95
2018-03-25T22:51:01.206Z,100505.95
2018-03-25T22:53:28.803Z,100508.61
2018-03-25T22:55:56.354Z,100502.65
2018-03-25T22:58:23.988Z,100506.56
2018-03-25T23:00:51.533Z,100506.16
2018-03-25T23:03:19.044Z,100497.55
2018-03-25T23:05:46.587Z,100502.87
2018-03-25T23:08:14.164Z,100503.83
2018-03-25T23:10:41.947Z,100501.20
2018-03-25T23:13:10.098Z,100505.03
2018-03-25T23:15:37.620Z,100502.78
2018-03-25T23:18:05.177Z,100497.87
2018-03-25T23:20:32.722Z,100492.17
2018-03-25T23:23:01.647Z,100490.43
2018-03-25T23:25:29.166Z,100488.94
2018-03-25T23:27:56.720Z,100500.17
2018-03-25T23:30:24.475Z,100498.75
2018-03-25T23:32:51.974Z,100494.96
2018-03-25T23:35:19.578Z,100492.93
2018-03-25T23:37:47.097Z,100495.59
2018-03-25T23:40:14.602Z,100496.88
2018-03-25T23:42:42.173Z,100494.84
2018-03-25T23:45:09.695Z,100499.95
2018-03-25T23:47:37.231Z,100498.13
2018-03-25T23:50:04.794Z,100501.30
2018-03-25T23:52:32.343Z,100505.03
2018-03-25T23:54:59.876Z,100505.28
2018-03-25T23:57:27.658Z,100508.31
2018-03-25T23:59:55.186Z,100508.89
